Time;durP1;ratioP1;P1;durP2;ratioP2;P2;SDS_P1;SDS_P2;PMS_P1;PMS_P2;Temp;Humidity;BMP_temperature;BMP_pressure;BME280_temperature;BME280_humidity;BME280_pressure;Samples;Min_cycle;Max_cycle;Signal;HPM_P1;HPM_P2
2023/03/06 00:00:27;;;;;;;26.58;16.10;;;4.60;99.90;;;;;;5058496;28;20090;-60
2023/03/06 00:02:53;;;;;;;23.30;14.40;;;4.50;99.90;;;;;;5057919;28;20029;-58
2023/03/06 00:05:19;;;;;;;27.85;15.35;;;4.70;99.90;;;;;;5058769;28;20041;-59
2023/03/06 00:07:45;;;;;;;22.67;13.40;;;4.80;99.90;;;;;;5057803;28;20033;-59
2023/03/06 00:10:21;;;;;;;24.90;14.52;;;4.90;99.90;;;;;;5057775;28;20048;-60
2023/03/06 00:12:47;;;;;;;23.45;14.60;;;5.00;99.90;;;;;;5058419;28;20036;-59
2023/03/06 00:15:14;;;;;;;24.42;15.20;;;4.90;99.90;;;;;;5058182;28;20041;-59
2023/03/06 00:17:46;;;;;;;25.27;14.65;;;4.90;99.90;;;;;;5058797;28;20036;-59
2023/03/06 00:20:14;;;;;;;27.90;15.45;;;4.90;99.90;;;;;;5058203;28;20029;-60
2023/03/06 00:22:43;;;;;;;28.77;15.57;;;4.80;99.90;;;;;;5057467;28;20031;-60
2023/03/06 00:25:15;;;;;;;24.77;15.18;;;4.70;99.90;;;;;;5058044;28;20037;-60
2023/03/06 00:27:41;;;;;;;23.93;15.50;;;4.80;99.90;;;;;;5058159;28;20021;-61
2023/03/06 00:30:10;;;;;;;25.15;14.75;;;5.00;99.90;;;;;;5058457;28;20416;-61
2023/03/06 00:32:36;;;;;;;23.83;14.93;;;4.90;99.90;;;;;;5058525;28;20045;-60
2023/03/06 00:35:02;;;;;;;25.90;14.50;;;4.80;99.90;;;;;;5057779;28;20277;-60
2023/03/06 00:37:32;;;;;;;25.70;14.65;;;4.70;99.90;;;;;;5057936;28;20037;-60
2023/03/06 00:40:02;;;;;;;26.95;16.38;;;4.80;99.90;;;;;;5057801;28;20021;-59
2023/03/06 00:42:27;;;;;;;25.85;16.40;;;4.70;99.90;;;;;;5041010;28;20047;-60
2023/03/06 00:44:53;;;;;;;29.33;16.63;;;4.50;99.90;;;;;;5057126;28;20029;-60
2023/03/06 00:47:24;;;;;;;29.55;16.58;;;4.50;99.90;;;;;;5040903;28;20143;-60
2023/03/06 00:49:51;;;;;;;25.17;15.50;;;4.50;99.90;;;;;;5056819;28;20090;-59
2023/03/06 00:52:17;;;;;;;25.92;16.38;;;4.60;99.90;;;;;;5057054;28;20052;-59
2023/03/06 00:54:47;;;;;;;27.95;16.50;;;4.70;99.90;;;;;;5057246;28;20037;-58
2023/03/06 00:57:13;;;;;;;27.10;16.10;;;4.70;99.90;;;;;;5058131;28;20056;-59
2023/03/06 00:59:39;;;;;;;26.30;16.33;;;4.60;99.90;;;;;;5056670;28;20037;-59
2023/03/06 01:02:05;;;;;;;27.65;15.35;;;4.50;99.90;;;;;;5056685;28;20043;-59
2023/03/06 01:04:31;;;;;;;25.60;15.82;;;4.50;99.90;;;;;;5056851;28;20044;-60
2023/03/06 01:06:57;;;;;;;25.15;15.80;;;4.30;99.90;;;;;;5057733;28;20025;-60
2023/03/06 01:09:23;;;;;;;26.23;15.70;;;4.30;99.90;;;;;;5057090;28;20067;-59
2023/03/06 01:11:52;;;;;;;29.27;15.73;;;4.40;99.90;;;;;;5056563;28;20024;-58
2023/03/06 01:14:18;;;;;;;24.60;15.63;;;4.40;99.90;;;;;;5056306;28;20029;-59
2023/03/06 01:16:45;;;;;;;24.10;15.18;;;4.60;99.90;;;;;;5057053;28;20025;-59
2023/03/06 01:19:11;;;;;;;24.70;15.50;;;4.60;99.90;;;;;;5039856;28;20033;-60
2023/03/06 01:21:38;;;;;;;23.20;14.73;;;4.60;99.90;;;;;;5056929;28;20091;-59
2023/03/06 01:24:07;;;;;;;24.30;14.95;;;4.60;99.90;;;;;;5057077;28;20021;-59
2023/03/06 01:26:33;;;;;;;24.08;15.43;;;4.60;99.90;;;;;;5056183;28;20068;-59
2023/03/06 01:29:00;;;;;;;25.80;15.05;;;4.60;99.90;;;;;;5057001;28;20107;-60
2023/03/06 01:31:28;;;;;;;24.77;14.93;;;4.70;99.90;;;;;;5056889;28;20039;-60
2023/03/06 01:33:54;;;;;;;22.33;14.60;;;4.90;99.90;;;;;;5055909;28;20037;-59
2023/03/06 01:36:23;;;;;;;26.65;14.20;;;5.00;99.90;;;;;;5056830;28;20105;-59
2023/03/06 01:38:49;;;;;;;27.08;14.00;;;5.00;99.90;;;;;;5056144;28;20111;-60
2023/03/06 01:41:16;;;;;;;25.02;15.07;;;5.00;99.90;;;;;;5056008;28;20420;-59
2023/03/06 01:43:46;;;;;;;25.25;14.68;;;5.00;99.90;;;;;;5056521;28;20084;-59
2023/03/06 01:46:40;;;;;;;24.17;14.65;;;5.20;99.90;;;;;;5056617;28;20089;-61
2023/03/06 01:49:26;;;;;;;25.65;14.75;;;5.20;99.90;;;;;;5056607;28;20025;-60
2023/03/06 01:52:11;;;;;;;23.20;14.68;;;5.30;99.90;;;;;;5056466;28;20021;-60
2023/03/06 01:54:50;;;;;;;26.38;15.13;;;5.30;99.90;;;;;;5039023;28;20044;-62
2023/03/06 01:57:18;;;;;;;23.88;15.18;;;5.10;99.90;;;;;;5057034;28;20029;-60
2023/03/06 01:59:46;;;;;;;22.70;15.00;;;5.20;99.90;;;;;;5055814;28;20028;-60
2023/03/06 02:02:14;;;;;;;25.08;16.10;;;5.00;99.90;;;;;;5056615;28;20030;-60
2023/03/06 02:04:42;;;;;;;26.80;15.55;;;4.90;99.90;;;;;;5055681;28;20037;-60
2023/03/06 02:07:09;;;;;;;25.10;16.25;;;4.90;99.90;;;;;;5055661;28;20097;-60
2023/03/06 02:09:36;;;;;;;28.65;16.80;;;4.70;99.90;;;;;;5056522;28;20040;-60
2023/03/06 02:12:07;;;;;;;27.85;17.30;;;4.70;99.90;;;;;;5056500;28;20033;-60
2023/03/06 02:14:33;;;;;;;34.13;17.80;;;4.80;99.90;;;;;;5056260;28;20503;-60
2023/03/06 02:16:59;;;;;;;28.92;18.30;;;4.90;99.90;;;;;;5058572;28;20057;-60
2023/03/06 02:19:35;;;;;;;31.15;17.58;;;5.20;99.90;;;;;;5060246;28;20029;-61
2023/03/06 02:22:01;;;;;;;34.03;19.50;;;5.30;99.90;;;;;;5060826;28;20328;-60
2023/03/06 02:24:51;;;;;;;31.17;19.20;;;5.10;99.90;;;;;;5060441;28;20025;-60
2023/03/06 02:27:18;;;;;;;31.65;18.85;;;5.00;99.90;;;;;;5060435;28;20388;-60
2023/03/06 02:29:46;;;;;;;33.35;19.75;;;5.10;99.90;;;;;;5059415;28;20089;-60
2023/03/06 02:32:12;;;;;;;31.70;19.88;;;5.10;99.90;;;;;;5059375;28;20032;-60
2023/03/06 02:34:38;;;;;;;36.78;19.73;;;5.00;99.90;;;;;;5060075;28;20300;-60
2023/03/06 02:37:09;;;;;;;35.25;20.98;;;5.00;99.90;;;;;;5060727;28;20389;-61
2023/03/06 02:39:40;;;;;;;35.65;21.17;;;4.90;99.90;;;;;;5060297;28;20377;-61
2023/03/06 02:42:06;;;;;;;36.33;20.70;;;4.80;99.90;;;;;;5059873;28;20380;-60
2023/03/06 02:44:33;;;;;;;34.95;20.65;;;4.80;99.90;;;;;;5059150;28;20052;-60
2023/03/06 02:46:59;;;;;;;36.05;21.00;;;4.90;99.90;;;;;;5059188;28;20029;-60
2023/03/06 02:49:25;;;;;;;38.35;21.40;;;4.90;99.90;;;;;;5060104;28;20031;-60
2023/03/06 02:51:51;;;;;;;35.47;22.05;;;4.90;99.90;;;;;;5059777;28;20033;-60
2023/03/06 02:54:17;;;;;;;35.65;22.05;;;4.90;99.90;;;;;;5058910;28;20064;-60
2023/03/06 02:56:45;;;;;;;37.85;21.90;;;4.90;99.90;;;;;;5059759;28;20040;-60
2023/03/06 02:59:14;;;;;;;37.20;21.40;;;4.90;99.90;;;;;;5059701;28;20090;-60
2023/03/06 03:01:40;;;;;;;37.40;22.17;;;5.00;99.90;;;;;;5059755;28;20301;-60
2023/03/06 03:04:07;;;;;;;35.45;20.67;;;5.00;99.90;;;;;;5059201;28;20420;-60
2023/03/06 03:06:32;;;;;;;37.17;22.02;;;5.00;99.90;;;;;;5059685;28;20095;-60
2023/03/06 03:08:58;;;;;;;34.13;21.05;;;4.80;99.90;;;;;;5058867;28;20057;-59
2023/03/06 03:11:28;;;;;;;35.38;22.23;;;4.70;99.90;;;;;;5059825;28;20072;-59
2023/03/06 03:13:54;;;;;;;37.95;22.20;;;4.70;99.90;;;;;;5058549;28;20033;-60
2023/03/06 03:16:23;;;;;;;36.38;20.98;;;4.70;99.90;;;;;;5058532;28;20090;-59
2023/03/06 03:18:50;;;;;;;38.17;21.33;;;4.70;99.90;;;;;;5058749;28;20025;-59
2023/03/06 03:21:18;;;;;;;46.10;22.58;;;4.70;99.90;;;;;;5058583;28;20029;-59
2023/03/06 03:23:45;;;;;;;39.53;22.05;;;4.80;99.90;;;;;;5058657;28;20090;-60
2023/03/06 03:26:18;;;;;;;36.78;21.83;;;4.80;99.90;;;;;;5057941;28;20063;-62
2023/03/06 03:28:51;;;;;;;39.58;22.63;;;4.90;99.90;;;;;;5058430;28;20116;-59
2023/03/06 03:31:19;;;;;;;42.13;23.00;;;5.00;99.90;;;;;;5058306;28;20033;-59
2023/03/06 03:33:45;;;;;;;34.30;21.17;;;4.90;99.90;;;;;;5059007;28;20087;-60
2023/03/06 03:36:11;;;;;;;38.40;21.67;;;4.70;99.90;;;;;;5074974;28;20025;-59
2023/03/06 03:38:41;;;;;;;35.03;20.67;;;4.60;99.90;;;;;;5058238;28;20029;-60
2023/03/06 03:41:07;;;;;;;34.45;20.90;;;4.70;99.90;;;;;;5058066;28;20037;-59
2023/03/06 03:43:33;;;;;;;35.47;21.13;;;4.80;99.90;;;;;;5058908;28;20091;-60
2023/03/06 03:45:59;;;;;;;40.72;22.38;;;4.60;99.90;;;;;;5058085;28;20033;-61
2023/03/06 03:48:26;;;;;;;37.45;21.35;;;4.70;99.90;;;;;;5058120;28;20029;-60
2023/03/06 03:50:52;;;;;;;37.05;20.92;;;4.70;99.90;;;;;;5058848;28;20063;-60
2023/03/06 03:53:22;;;;;;;41.83;22.45;;;4.80;99.90;;;;;;5058084;28;20045;-60
2023/03/06 03:55:48;;;;;;;38.67;23.77;;;4.70;99.90;;;;;;5040921;28;20053;-60
2023/03/06 03:58:15;;;;;;;41.90;22.90;;;4.70;99.90;;;;;;5057820;28;20108;-60
2023/03/06 04:00:41;;;;;;;40.20;23.02;;;4.80;99.90;;;;;;5057796;28;20144;-60
2023/03/06 04:03:12;;;;;;;36.38;21.65;;;4.60;99.90;;;;;;5058621;28;20035;-60
2023/03/06 04:05:41;;;;;;;38.85;22.70;;;4.40;99.90;;;;;;5057746;28;20036;-59
2023/03/06 04:08:08;;;;;;;41.33;23.45;;;4.20;99.90;;;;;;5057770;28;20048;-59
2023/03/06 04:10:38;;;;;;;47.03;24.08;;;4.00;99.90;;;;;;5074779;28;20335;-63
2023/03/06 04:13:05;;;;;;;45.65;25.02;;;4.00;99.90;;;;;;5041578;28;20033;-59
2023/03/06 04:15:32;;;;;;;46.05;25.73;;;4.10;99.90;;;;;;5058584;28;20056;-59
2023/03/06 04:17:59;;;;;;;44.05;24.55;;;4.10;99.90;;;;;;5057565;28;20032;-60
2023/03/06 04:20:27;;;;;;;46.47;25.88;;;4.10;99.90;;;;;;5057483;28;20032;-59
2023/03/06 04:22:54;;;;;;;45.90;25.25;;;4.00;99.90;;;;;;5057257;28;20029;-60
2023/03/06 04:25:21;;;;;;;47.80;25.27;;;3.90;99.90;;;;;;5040976;28;20029;-61
2023/03/06 04:27:47;;;;;;;45.00;26.10;;;3.90;99.90;;;;;;5057377;28;20312;-59
2023/03/06 04:30:13;;;;;;;46.55;24.50;;;4.00;99.90;;;;;;5040558;28;20029;-60
2023/03/06 04:32:40;;;;;;;45.10;25.35;;;4.00;99.90;;;;;;5057983;28;20404;-60
2023/03/06 04:35:06;;;;;;;43.17;25.33;;;4.00;99.90;;;;;;5057673;28;20086;-60
2023/03/06 04:37:37;;;;;;;47.05;26.42;;;4.00;99.90;;;;;;5057007;28;20123;-60
2023/03/06 04:40:04;;;;;;;47.30;26.25;;;4.00;99.90;;;;;;5039844;28;20024;-59
2023/03/06 04:42:30;;;;;;;45.67;25.23;;;4.10;99.90;;;;;;5056932;28;20091;-60
2023/03/06 04:44:56;;;;;;;51.85;27.35;;;4.00;99.90;;;;;;5090461;28;20045;-60
2023/03/06 04:47:22;;;;;;;49.33;26.95;;;4.00;99.90;;;;;;5056867;28;20445;-60
2023/03/06 04:49:47;;;;;;;46.28;26.67;;;4.00;99.90;;;;;;5057182;28;20037;-60
2023/03/06 04:52:13;;;;;;;48.40;27.05;;;3.90;99.90;;;;;;5056728;28;20327;-60
2023/03/06 04:54:39;;;;;;;52.42;26.13;;;3.90;99.90;;;;;;5057308;28;20053;-59
2023/03/06 04:57:05;;;;;;;50.08;26.50;;;3.70;99.90;;;;;;5056661;28;20297;-59
2023/03/06 04:59:31;;;;;;;47.72;26.55;;;3.70;99.90;;;;;;5057204;28;20052;-59
2023/03/06 05:01:57;;;;;;;46.38;25.90;;;3.70;99.90;;;;;;5057709;28;20392;-59
2023/03/06 05:04:22;;;;;;;51.85;27.00;;;3.60;99.90;;;;;;5057027;28;20403;-60
2023/03/06 05:06:48;;;;;;;47.13;25.42;;;3.60;99.90;;;;;;5056658;28;20033;-60
2023/03/06 05:09:14;;;;;;;51.05;26.40;;;3.50;99.90;;;;;;5057827;28;20169;-60
2023/03/06 05:11:40;;;;;;;49.67;26.23;;;3.40;99.90;;;;;;5057281;28;20082;-60
2023/03/06 05:14:09;;;;;;;47.88;25.98;;;3.40;99.90;;;;;;5056625;28;20044;-60
2023/03/06 05:16:34;;;;;;;52.47;26.73;;;3.40;99.90;;;;;;5040373;28;20033;-59
2023/03/06 05:19:00;;;;;;;50.65;26.70;;;3.40;99.90;;;;;;5057005;28;20036;-59
2023/03/06 05:21:26;;;;;;;53.00;26.80;;;3.30;99.90;;;;;;5056251;28;20110;-59
2023/03/06 05:23:52;;;;;;;50.90;26.10;;;3.30;99.90;;;;;;5039980;28;20377;-59
2023/03/06 05:26:18;;;;;;;50.97;26.33;;;3.30;99.90;;;;;;5056879;28;20060;-60
2023/03/06 05:28:43;;;;;;;56.35;26.40;;;3.30;99.90;;;;;;5056868;28;20087;-60
2023/03/06 05:31:09;;;;;;;54.88;28.08;;;3.30;99.90;;;;;;5057258;28;20311;-59
2023/03/06 05:33:35;;;;;;;55.35;27.58;;;3.20;99.90;;;;;;5056215;28;20035;-60
2023/03/06 05:36:02;;;;;;;56.70;28.65;;;3.30;99.90;;;;;;5056745;28;20051;-60
2023/03/06 05:38:28;;;;;;;56.83;27.92;;;3.30;99.90;;;;;;5056112;28;20036;-59
2023/03/06 05:40:54;;;;;;;50.25;25.65;;;3.20;99.90;;;;;;5055951;28;20045;-60
2023/03/06 05:43:20;;;;;;;53.33;26.70;;;3.20;99.90;;;;;;5056138;28;20029;-60
2023/03/06 05:45:51;;;;;;;58.97;28.33;;;3.20;99.90;;;;;;5072781;28;20036;-60
2023/03/06 05:48:17;;;;;;;52.40;26.95;;;3.20;99.90;;;;;;5057261;28;20137;-60
2023/03/06 05:50:43;;;;;;;50.15;26.10;;;3.10;99.90;;;;;;5056821;28;20104;-60
2023/03/06 05:53:09;;;;;;;53.97;27.02;;;3.10;99.90;;;;;;5056770;28;20029;-60
2023/03/06 05:55:35;;;;;;;55.60;27.73;;;3.00;99.90;;;;;;5055757;28;20106;-58
2023/03/06 05:58:01;;;;;;;52.95;26.60;;;3.00;99.90;;;;;;5056537;28;20416;-59
2023/03/06 06:00:27;;;;;;;49.10;25.83;;;3.00;99.90;;;;;;5056114;28;20033;-60
2023/03/06 06:02:53;;;;;;;56.45;27.63;;;3.10;99.90;;;;;;5056712;28;20025;-61
2023/03/06 06:05:21;;;;;;;56.80;25.17;;;3.10;99.90;;;;;;5056588;28;20041;-60
2023/03/06 06:07:47;;;;;;;55.05;26.02;;;3.10;99.90;;;;;;5056303;28;20033;-60
2023/03/06 06:10:13;;;;;;;54.70;27.25;;;3.10;99.90;;;;;;5055668;28;20128;-60
2023/03/06 06:12:39;;;;;;;51.95;27.25;;;3.10;99.90;;;;;;5056039;28;20309;-60
2023/03/06 06:15:06;;;;;;;56.30;27.95;;;3.10;99.90;;;;;;5056532;28;20037;-60
2023/03/06 06:17:32;;;;;;;56.53;27.23;;;3.20;99.90;;;;;;5056357;28;20029;-60
2023/03/06 06:19:58;;;;;;;53.03;26.73;;;3.20;99.90;;;;;;5038815;28;20028;-61
2023/03/06 06:22:24;;;;;;;56.30;28.48;;;3.20;99.90;;;;;;5055561;28;20312;-58
2023/03/06 06:24:49;;;;;;;56.63;26.67;;;3.20;99.90;;;;;;5055593;28;20033;-60
2023/03/06 06:27:15;;;;;;;56.30;26.65;;;3.10;99.90;;;;;;5056264;28;20033;-60
2023/03/06 06:29:41;;;;;;;52.97;27.33;;;3.10;99.90;;;;;;5056027;28;20485;-59
2023/03/06 06:32:07;;;;;;;52.67;27.25;;;3.20;99.90;;;;;;5056261;28;20044;-60
2023/03/06 06:34:33;;;;;;;56.60;28.63;;;3.10;99.90;;;;;;5055364;28;20041;-60
2023/03/06 06:36:59;;;;;;;50.22;26.75;;;3.10;99.90;;;;;;5056850;28;20037;-60
2023/03/06 06:39:25;;;;;;;54.50;27.70;;;3.10;99.90;;;;;;5038891;28;20098;-60
2023/03/06 06:41:51;;;;;;;50.70;27.10;;;3.00;99.90;;;;;;5038695;28;20316;-59
2023/03/06 06:44:18;;;;;;;54.97;27.15;;;3.10;99.90;;;;;;5056069;28;20033;-59
2023/03/06 06:46:45;;;;;;;50.65;26.75;;;3.10;99.90;;;;;;5056105;28;20029;-59
2023/03/06 06:49:12;;;;;;;50.03;26.70;;;3.10;99.90;;;;;;5056095;28;20067;-61
2023/03/06 06:51:38;;;;;;;53.05;27.15;;;3.20;99.90;;;;;;5038847;28;20060;-60
2023/03/06 06:54:05;;;;;;;56.85;27.40;;;3.20;99.90;;;;;;5054990;28;20087;-59
2023/03/06 06:56:31;;;;;;;50.92;26.77;;;3.30;99.90;;;;;;5055225;28;20033;-59
2023/03/06 06:59:00;;;;;;;57.33;27.23;;;3.20;99.90;;;;;;5055411;28;20082;-60
2023/03/06 07:01:26;;;;;;;50.22;26.25;;;3.30;99.90;;;;;;5055924;28;20289;-60
2023/03/06 07:03:52;;;;;;;57.15;28.30;;;3.40;99.90;;;;;;5042367;28;20033;-61
2023/03/06 07:06:17;;;;;;;55.03;27.77;;;3.50;99.90;;;;;;5042219;28;20025;-60
2023/03/06 07:08:43;;;;;;;51.85;26.67;;;3.60;99.90;;;;;;5075874;28;20033;-61
2023/03/06 07:11:13;;;;;;;53.65;28.23;;;3.70;99.90;;;;;;5059488;28;20033;-60
2023/03/06 07:13:39;;;;;;;54.20;27.75;;;3.70;99.90;;;;;;5059591;28;20021;-59
2023/03/06 07:16:05;;;;;;;52.28;27.75;;;3.70;99.90;;;;;;5058641;28;20174;-59
2023/03/06 07:18:31;;;;;;;54.45;28.15;;;3.60;99.90;;;;;;5058607;28;20316;-61
2023/03/06 07:20:57;;;;;;;47.67;25.92;;;3.80;99.90;;;;;;5059359;28;20036;-60
2023/03/06 07:23:25;;;;;;;53.67;27.42;;;3.80;99.90;;;;;;5058686;28;20095;-60
2023/03/06 07:25:52;;;;;;;40.90;21.30;;;3.90;99.90;;;;;;5058573;28;20040;-58
2023/03/06 07:28:18;;;;;;;52.00;27.10;;;4.40;99.90;;;;;;5041915;28;20415;-66
2023/03/06 07:30:45;;;;;;;48.50;27.02;;;4.60;99.90;;;;;;5058431;28;20048;-65
2023/03/06 07:33:12;;;;;;;50.28;27.25;;;4.40;99.90;;;;;;5058265;28;20040;-65
2023/03/06 07:35:38;;;;;;;46.58;27.00;;;4.10;99.90;;;;;;5059082;28;20030;-65
2023/03/06 07:38:03;;;;;;;47.45;26.50;;;4.20;99.90;;;;;;5058370;28;20071;-65
2023/03/06 07:40:29;;;;;;;48.38;25.73;;;4.20;99.90;;;;;;5058598;28;20347;-64
2023/03/06 07:42:56;;;;;;;51.22;27.88;;;4.30;99.90;;;;;;5058209;28;20040;-68
2023/03/06 07:45:26;;;;;;;51.55;27.60;;;4.50;99.90;;;;;;5057967;28;20082;-63
2023/03/06 07:47:53;;;;;;;47.78;26.05;;;5.20;99.90;;;;;;5059145;28;20040;-65
2023/03/06 07:50:19;;;;;;;47.17;26.48;;;6.50;99.90;;;;;;5041700;28;20033;-70
2023/03/06 07:52:45;;;;;;;45.70;26.30;;;6.50;99.90;;;;;;5058849;28;20037;-71
2023/03/06 07:55:12;;;;;;;46.50;25.38;;;6.00;99.90;;;;;;5058048;28;20416;-72
2023/03/06 07:57:38;;;;;;;44.15;26.40;;;5.70;99.90;;;;;;5041829;28;20021;-70
2023/03/06 08:00:07;;;;;;;46.80;26.60;;;5.50;99.90;;;;;;5042095;28;20134;-68
2023/03/06 08:02:39;;;;;;;43.00;25.95;;;5.30;99.90;;;;;;5058148;28;20029;-71
2023/03/06 08:05:07;;;;;;;44.33;25.40;;;5.30;99.90;;;;;;5058804;28;20308;-71
2023/03/06 08:07:33;;;;;;;48.42;27.50;;;5.40;99.90;;;;;;5058390;28;20039;-70
2023/03/06 08:09:59;;;;;;;47.80;26.85;;;5.40;99.90;;;;;;5058015;28;20036;-71
2023/03/06 08:12:26;;;;;;;46.28;26.40;;;5.40;99.90;;;;;;5058868;28;20033;-72
2023/03/06 08:14:52;;;;;;;48.83;25.88;;;5.60;99.90;;;;;;5058380;28;20024;-73
2023/03/06 08:17:18;;;;;;;43.50;25.90;;;5.60;99.90;;;;;;5058378;28;20408;-71
2023/03/06 08:19:43;;;;;;;50.08;26.67;;;5.70;99.90;;;;;;5058544;28;20039;-71
2023/03/06 08:22:10;;;;;;;42.00;24.88;;;5.60;99.90;;;;;;5058319;28;20087;-74
2023/03/06 08:24:36;;;;;;;43.47;25.73;;;5.60;99.90;;;;;;5057677;28;20091;-72
2023/03/06 08:27:02;;;;;;;44.25;26.48;;;5.60;99.90;;;;;;5057560;28;20376;-70
2023/03/06 08:29:28;;;;;;;43.40;25.38;;;5.50;99.90;;;;;;5057901;28;20061;-71
2023/03/06 08:31:54;;;;;;;42.90;25.58;;;5.40;99.90;;;;;;5074507;28;20067;-73
2023/03/06 08:34:23;;;;;;;43.45;25.70;;;5.30;99.90;;;;;;5057686;28;20049;-72
2023/03/06 08:36:49;;;;;;;46.47;25.52;;;5.40;99.90;;;;;;5057515;28;20064;-69
2023/03/06 08:39:15;;;;;;;45.47;25.10;;;5.30;99.90;;;;;;5057608;28;20044;-69
2023/03/06 08:41:42;;;;;;;42.42;25.15;;;5.20;99.90;;;;;;5057733;28;20365;-71
2023/03/06 08:44:08;;;;;;;39.95;24.50;;;5.10;99.90;;;;;;5040638;28;20029;-73
2023/03/06 08:46:34;;;;;;;47.15;25.63;;;5.10;99.90;;;;;;5040652;28;20033;-72
2023/03/06 08:49:01;;;;;;;45.58;25.75;;;5.40;99.90;;;;;;5057752;28;20043;-71
2023/03/06 08:51:27;;;;;;;53.20;25.52;;;5.60;99.90;;;;;;5058223;28;20109;-74
2023/03/06 08:53:56;;;;;;;43.17;25.42;;;5.70;99.90;;;;;;5040411;28;20455;-71
2023/03/06 08:56:27;;;;;;;46.22;24.67;;;5.90;99.90;;;;;;5057959;28;20101;-71
2023/03/06 08:58:54;;;;;;;43.38;25.27;;;5.90;99.90;;;;;;5057973;28;20039;-71
2023/03/06 09:01:32;;;;;;;41.10;24.25;;;6.00;99.90;;;;;;5058214;28;20025;-70
2023/03/06 09:04:00;;;;;;;42.95;24.42;;;6.00;99.90;;;;;;5057727;28;20428;-70
2023/03/06 09:06:29;;;;;;;43.72;24.75;;;6.10;99.90;;;;;;5040476;28;20120;-72
2023/03/06 09:08:54;;;;;;;44.20;25.38;;;6.10;99.90;;;;;;5040746;28;20391;-72
2023/03/06 09:11:22;;;;;;;40.15;24.27;;;6.10;99.90;;;;;;5057031;28;20029;-71
2023/03/06 09:13:47;;;;;;;42.20;24.15;;;5.90;99.90;;;;;;5056931;28;20373;-71
2023/03/06 09:16:14;;;;;;;40.55;24.13;;;6.00;99.90;;;;;;5040407;28;20037;-70
2023/03/06 09:18:40;;;;;;;40.42;23.98;;;6.10;99.90;;;;;;5057797;28;20120;-70
2023/03/06 09:21:07;;;;;;;38.05;22.52;;;6.00;99.90;;;;;;5058331;28;20021;-71
2023/03/06 09:23:33;;;;;;;38.15;23.35;;;5.90;99.90;;;;;;5057354;28;20025;-71
2023/03/06 09:26:00;;;;;;;40.65;22.98;;;5.90;99.90;;;;;;5056528;28;20416;-71
2023/03/06 09:28:26;;;;;;;40.13;22.63;;;6.00;99.90;;;;;;5056650;28;20040;-73
2023/03/06 09:30:52;;;;;;;42.40;23.15;;;6.10;99.90;;;;;;5040834;28;20033;-74
2023/03/06 09:33:19;;;;;;;42.45;23.40;;;6.30;99.90;;;;;;5058020;28;20040;-73
2023/03/06 09:35:49;;;;;;;41.33;23.30;;;6.60;99.90;;;;;;5057167;28;20029;-72
2023/03/06 09:38:16;;;;;;;37.42;22.27;;;6.80;99.90;;;;;;5057080;28;20100;-72
2023/03/06 09:41:01;;;;;;;36.55;22.77;;;7.10;99.90;;;;;;5057521;28;20274;-73
2023/03/06 09:43:45;;;;;;;36.38;22.52;;;7.20;99.90;;;;;;5057863;28;20163;-71
2023/03/06 09:46:28;;;;;;;34.90;20.50;;;7.00;99.90;;;;;;5057524;28;20037;-70
2023/03/06 09:49:19;;;;;;;36.28;21.70;;;6.80;99.90;;;;;;5055983;28;20187;-69
2023/03/06 09:51:53;;;;;;;34.25;20.67;;;6.80;99.90;;;;;;5056525;28;20035;-67
2023/03/06 09:54:47;;;;;;;32.83;20.58;;;6.60;99.90;;;;;;5057228;28;20045;-70
2023/03/06 09:57:22;;;;;;;36.25;21.00;;;6.70;99.90;;;;;;5041517;28;20064;-72
2023/03/06 09:59:54;;;;;;;32.03;19.65;;;7.00;99.90;;;;;;5056299;28;20162;-70
2023/03/06 10:02:44;;;;;;;32.30;19.60;;;7.20;99.90;;;;;;5056225;28;20041;-71
2023/03/06 10:05:27;;;;;;;30.73;19.17;;;7.40;99.90;;;;;;5056367;28;20060;-72
2023/03/06 10:08:05;;;;;;;33.88;19.30;;;7.70;99.90;;;;;;5056188;28;20040;-72
2023/03/06 10:10:49;;;;;;;29.42;18.73;;;7.90;99.90;;;;;;5056241;28;20393;-74
2023/03/06 10:13:40;;;;;;;27.75;17.65;;;8.00;99.90;;;;;;5056196;28;20056;-72
2023/03/06 10:16:31;;;;;;;27.33;18.20;;;8.20;99.90;;;;;;5056524;28;20041;-70
2023/03/06 10:19:02;;;;;;;29.05;18.70;;;8.30;99.90;;;;;;5056129;28;20052;-71
2023/03/06 10:21:57;;;;;;;25.90;17.40;;;7.70;99.90;;;;;;5056341;28;20079;-72
2023/03/06 10:24:53;;;;;;;26.15;17.30;;;7.60;99.90;;;;;;5057433;28;20033;-71
2023/03/06 10:27:44;;;;;;;30.85;18.25;;;7.60;99.90;;;;;;5056574;28;20037;-71
2023/03/06 10:30:21;;;;;;;29.27;18.02;;;7.70;99.90;;;;;;5056339;28;20470;-70
2023/03/06 10:32:59;;;;;;;28.85;17.25;;;7.80;99.90;;;;;;5057280;28;20107;-73
2023/03/06 10:35:50;;;;;;;28.35;18.10;;;8.00;99.90;;;;;;5056481;28;20029;-71
2023/03/06 10:38:23;;;;;;;28.25;17.73;;;8.20;99.90;;;;;;5059778;28;20039;-70
2023/03/06 10:41:02;;;;;;;31.42;17.42;;;8.50;99.90;;;;;;5043543;28;20033;-71
2023/03/06 10:43:28;;;;;;;24.73;16.58;;;8.70;99.90;;;;;;5043321;28;20033;-69
2023/03/06 10:45:54;;;;;;;27.70;16.90;;;8.90;99.90;;;;;;5043633;28;20464;-70
2023/03/06 10:48:23;;;;;;;25.67;15.48;;;8.90;99.90;;;;;;5059744;28;20450;-70
2023/03/06 10:50:49;;;;;;;25.75;16.38;;;8.80;99.90;;;;;;5059474;28;20404;-69
2023/03/06 10:53:29;;;;;;;23.85;15.77;;;8.70;99.90;;;;;;5059414;28;20040;-73
2023/03/06 10:55:58;;;;;;;27.45;16.73;;;8.90;99.90;;;;;;5060630;28;20072;-73
2023/03/06 10:58:30;;;;;;;26.15;16.92;;;9.00;99.90;;;;;;5059434;28;20098;-73
2023/03/06 11:01:19;;;;;;;27.40;17.07;;;9.20;99.90;;;;;;5059367;28;20304;-72
2023/03/06 11:03:46;;;;;;;23.90;14.90;;;8.80;99.90;;;;;;5060147;28;20021;-71
2023/03/06 11:06:33;;;;;;;22.60;15.27;;;9.00;99.90;;;;;;5060225;28;20028;-71
2023/03/06 11:09:18;;;;;;;19.13;14.52;;;9.20;99.90;;;;;;5059127;28;20037;-71
2023/03/06 11:11:43;;;;;;;23.55;15.80;;;9.40;99.90;;;;;;5059307;28;20033;-73
2023/03/06 11:14:28;;;;;;;24.95;16.50;;;10.00;99.90;;;;;;5059735;28;20163;-72
2023/03/06 11:16:53;;;;;;;23.90;16.60;;;9.90;99.90;;;;;;5060568;28;20037;-73
2023/03/06 11:19:25;;;;;;;25.67;16.98;;;10.10;99.90;;;;;;5042498;28;20078;-75
2023/03/06 11:22:03;;;;;;;23.38;16.83;;;10.30;99.90;;;;;;5060035;28;20331;-70
2023/03/06 11:24:37;;;;;;;23.73;17.20;;;10.50;99.90;;;;;;5060161;28;20043;-72
2023/03/06 11:27:35;;;;;;;23.77;16.60;;;10.20;99.90;;;;;;5059097;28;20443;-71
2023/03/06 11:30:04;;;;;;;22.00;15.65;;;9.50;99.90;;;;;;5059732;28;20033;-71
2023/03/06 11:32:39;;;;;;;22.75;15.50;;;9.30;99.90;;;;;;5060151;28;20384;-73
2023/03/06 11:35:10;;;;;;;22.48;15.68;;;9.40;99.90;;;;;;5060515;28;20043;-71
2023/03/06 11:37:52;;;;;;;23.70;16.13;;;9.60;99.90;;;;;;5059313;28;20037;-73
2023/03/06 11:40:45;;;;;;;24.20;16.58;;;9.50;99.90;;;;;;5059315;28;20025;-73
2023/03/06 11:43:30;;;;;;;20.90;15.60;;;9.40;99.90;;;;;;5059418;28;20062;-69
2023/03/06 11:46:04;;;;;;;21.50;16.08;;;9.40;99.90;;;;;;5060001;28;20301;-70
2023/03/06 11:48:34;;;;;;;20.63;15.65;;;9.50;99.90;;;;;;5059154;28;20036;-70
2023/03/06 11:51:13;;;;;;;22.83;14.93;;;9.60;99.90;;;;;;5059638;28;20029;-72
2023/03/06 11:53:39;;;;;;;20.65;15.63;;;9.90;99.90;;;;;;5058644;28;20029;-73
2023/03/06 11:56:17;;;;;;;22.73;15.63;;;9.90;99.90;;;;;;5058504;28;20029;-70
2023/03/06 11:59:10;;;;;;;22.15;15.65;;;9.70;99.90;;;;;;5058674;28;20035;-71
2023/03/06 12:02:14;;;;;;;21.50;15.82;;;9.50;99.90;;;;;;5058694;28;20021;-71
2023/03/06 12:04:59;;;;;;;28.58;16.75;;;9.40;99.90;;;;;;5059026;28;20043;-72
2023/03/06 12:07:53;;;;;;;25.38;17.13;;;10.30;99.90;;;;;;5041541;28;20078;-68
2023/03/06 12:10:22;;;;;;;22.08;16.27;;;11.00;99.90;;;;;;5058655;28;20028;-72
2023/03/06 12:12:55;;;;;;;22.30;16.98;;;10.60;99.90;;;;;;5058990;28;20087;-69
2023/03/06 12:15:49;;;;;;;25.70;16.30;;;10.30;99.90;;;;;;5057785;28;20139;-71
2023/03/06 12:18:32;;;;;;;21.73;15.80;;;9.90;99.90;;;;;;5058509;28;20024;-72
2023/03/06 12:21:43;;;;;;;20.75;15.40;;;9.70;99.90;;;;;;5058208;28;20025;-69
2023/03/06 12:24:24;;;;;;;19.10;13.98;;;9.40;99.90;;;;;;5058058;28;20064;-70
2023/03/06 12:26:56;;;;;;;15.95;11.77;;;9.50;99.90;;;;;;5057708;28;20025;-69
2023/03/06 12:29:45;;;;;;;17.93;12.00;;;9.10;99.90;;;;;;5057741;28;20040;-72
2023/03/06 12:32:26;;;;;;;23.02;12.90;;;8.90;99.90;;;;;;5058367;28;20120;-70
2023/03/06 12:35:07;;;;;;;18.65;11.43;;;8.40;99.90;;;;;;5057542;28;20333;-69
2023/03/06 12:37:55;;;;;;;17.85;11.40;;;8.30;99.90;;;;;;5040974;28;20393;-68
2023/03/06 12:40:48;;;;;;;17.02;10.95;;;8.00;99.90;;;;;;5058287;28;20052;-68
2023/03/06 12:43:13;;;;;;;;;;;8.10;99.90;;;;;;5058535;28;20032;-70
2023/03/06 12:45:43;;;;;;;18.00;11.98;;;8.10;99.90;;;;;;5058148;28;20187;-70
2023/03/06 12:48:24;;;;;;;19.20;11.98;;;8.40;99.90;;;;;;5057964;28;20365;-69
2023/03/06 12:50:51;;;;;;;18.92;12.20;;;8.50;99.90;;;;;;5057482;28;20029;-68